createdAt,value
2023-03-27T00:02:06.174Z,4.75
2023-03-27T00:04:32.885Z,5.63
2023-03-27T00:06:59.693Z,4.90
2023-03-27T00:09:27.830Z,4.65
2023-03-27T00:11:56.179Z,5.10
2023-03-27T00:14:23.979Z,4.75
2023-03-27T00:16:51.153Z,4.28
2023-03-27T00:19:19.054Z,4.80
2023-03-27T00:21:45.712Z,5.13
2023-03-27T00:24:12.576Z,4.18
2023-03-27T00:26:40.609Z,4.13
2023-03-27T00:29:07.959Z,5.22
2023-03-27T00:31:35.690Z,4.72
2023-03-27T00:34:03.468Z,4.22
2023-03-27T00:36:30.240Z,5.15
2023-03-27T00:38:56.988Z,5.22
2023-03-27T00:41:23.617Z,4.57
2023-03-27T00:43:54.103Z,3.70
2023-03-27T00:46:44.297Z,4.93
2023-03-27T00:49:13.903Z,3.92
2023-03-27T00:51:43.191Z,3.85
2023-03-27T00:54:10.877Z,4.90
2023-03-27T00:56:38.634Z,4.03
2023-03-27T00:59:12.470Z,3.90
2023-03-27T01:01:40.124Z,3.65
2023-03-27T01:04:08.537Z,3.72
2023-03-27T01:06:35.840Z,3.30
2023-03-27T01:09:04.578Z,3.35
2023-03-27T01:11:46.231Z,3.30
2023-03-27T01:14:34.862Z,3.05
2023-03-27T01:17:26.890Z,3.78
2023-03-27T01:20:14.170Z,3.05
2023-03-27T01:23:08.949Z,3.78
2023-03-27T01:26:15.435Z,3.80
2023-03-27T01:29:03.695Z,3.45
2023-03-27T01:31:52.137Z,3.65
2023-03-27T01:34:46.762Z,3.13
2023-03-27T01:37:13.397Z,3.38
2023-03-27T01:40:05.147Z,2.92
2023-03-27T01:42:43.780Z,3.50
2023-03-27T01:45:22.963Z,3.13
2023-03-27T01:48:13.058Z,3.25
2023-03-27T01:50:47.164Z,2.47
2023-03-27T01:53:17.494Z,2.70
2023-03-27T01:55:54.235Z,3.03
2023-03-27T01:58:28.054Z,2.80
2023-03-27T02:00:58.872Z,3.10
2023-03-27T02:03:45.334Z,4.05
2023-03-27T02:06:17.740Z,2.95
2023-03-27T02:09:04.372Z,3.65
2023-03-27T02:11:44.398Z,2.72
2023-03-27T02:14:19.971Z,2.63
2023-03-27T02:16:53.096Z,2.60
2023-03-27T02:19:42.980Z,2.72
2023-03-27T02:22:09.698Z,2.20
2023-03-27T02:24:46.232Z,2.70
2023-03-27T02:27:22.236Z,2.47
2023-03-27T02:29:51.699Z,2.63
2023-03-27T02:32:55.341Z,2.40
2023-03-27T02:35:33.067Z,3.53
2023-03-27T02:38:14.656Z,2.35
2023-03-27T02:41:14.808Z,2.00
2023-03-27T02:44:19.527Z,1.85
2023-03-27T02:47:13.140Z,1.75
2023-03-27T02:49:46.678Z,1.80
2023-03-27T02:52:19.753Z,2.08
2023-03-27T02:54:59.151Z,1.75
2023-03-27T02:57:27.897Z,1.70
2023-03-27T03:00:20.633Z,1.92
2023-03-27T03:03:10.968Z,2.88
2023-03-27T03:05:38.111Z,2.17
2023-03-27T03:08:05.875Z,1.80
2023-03-27T03:10:33.290Z,2.40
2023-03-27T03:12:59.814Z,2.00
2023-03-27T03:15:27.076Z,2.10
2023-03-27T03:17:54.041Z,1.75
2023-03-27T03:20:21.532Z,1.63
2023-03-27T03:22:49.307Z,1.98
2023-03-27T03:25:17.878Z,1.70
2023-03-27T03:27:44.419Z,1.90
2023-03-27T03:30:16.794Z,2.50
2023-03-27T03:33:17.798Z,2.20
2023-03-27T03:35:50.015Z,1.60
2023-03-27T03:38:29.984Z,1.83
2023-03-27T03:41:07.077Z,1.65
2023-03-27T03:43:34.305Z,1.58
2023-03-27T03:46:01.877Z,2.17
2023-03-27T03:48:28.678Z,1.77
2023-03-27T03:50:55.611Z,1.75
2023-03-27T03:53:22.330Z,2.10
2023-03-27T03:55:52.323Z,1.92
2023-03-27T03:58:19.034Z,1.67
2023-03-27T04:00:47.078Z,2.00
2023-03-27T04:03:34.675Z,1.77
2023-03-27T04:06:05.106Z,2.03
2023-03-27T04:08:32.931Z,2.00
2023-03-27T04:11:02.161Z,1.80
2023-03-27T04:13:58.080Z,1.80
2023-03-27T04:16:34.077Z,1.75
2023-03-27T04:19:07.264Z,2.22
2023-03-27T04:21:37.964Z,2.65
2023-03-27T04:24:06.634Z,1.80
2023-03-27T04:26:43.495Z,2.35
2023-03-27T04:29:25.862Z,2.50
2023-03-27T04:31:58.630Z,1.60
2023-03-27T04:34:40.888Z,2.50
2023-03-27T04:37:27.852Z,2.05
2023-03-27T04:40:05.522Z,2.15
2023-03-27T04:42:32.287Z,1.77
2023-03-27T04:44:58.834Z,2.30
2023-03-27T04:47:28.381Z,1.85
2023-03-27T04:50:00.839Z,1.92
2023-03-27T04:52:29.557Z,1.92
2023-03-27T04:54:58.806Z,1.70
2023-03-27T04:57:28.619Z,3.05
2023-03-27T05:00:00.046Z,2.33
2023-03-27T05:02:56.139Z,3.17
2023-03-27T05:05:34.687Z,2.85
2023-03-27T05:08:04.544Z,5.82
2023-03-27T05:10:31.769Z,2.22
2023-03-27T05:12:59.959Z,2.45
2023-03-27T05:15:26.512Z,3.67
2023-03-27T05:17:54.984Z,2.22
2023-03-27T05:20:25.235Z,2.40
2023-03-27T05:22:56.281Z,3.08
2023-03-27T05:25:25.705Z,2.78
2023-03-27T05:27:54.173Z,3.22
2023-03-27T05:30:23.143Z,2.80
2023-03-27T05:32:59.370Z,2.40
2023-03-27T05:35:28.879Z,2.88
2023-03-27T05:37:57.553Z,2.53
2023-03-27T05:40:32.109Z,2.63
2023-03-27T05:42:58.736Z,3.35
2023-03-27T05:45:29.827Z,3.40
2023-03-27T05:47:58.396Z,2.40
2023-03-27T05:50:28.847Z,2.42
2023-03-27T05:53:07.888Z,3.35
2023-03-27T05:55:38.729Z,3.40
2023-03-27T05:58:07.242Z,3.30
2023-03-27T06:00:34.317Z,3.25
2023-03-27T06:03:02.959Z,3.05
2023-03-27T06:06:12.339Z,2.92
2023-03-27T06:08:42.133Z,3.33
2023-03-27T06:11:13.753Z,2.60
2023-03-27T06:13:49.734Z,2.97
2023-03-27T06:16:20.885Z,3.85
2023-03-27T06:19:16.998Z,2.67
2023-03-27T06:21:49.038Z,3.03
2023-03-27T06:24:16.762Z,2.58
2023-03-27T06:26:43.533Z,2.50
2023-03-27T06:29:10.806Z,3.05
2023-03-27T06:31:45.010Z,2.50
2023-03-27T06:34:17.580Z,2.50
2023-03-27T06:36:56.157Z,2.63
2023-03-27T06:39:22.954Z,2.28
2023-03-27T06:41:51.913Z,2.95
2023-03-27T06:47:44.494Z,2.70
2023-03-27T06:50:47.064Z,2.75
2023-03-27T06:53:26.510Z,2.75
2023-03-27T06:55:55.869Z,2.83
2023-03-27T06:58:23.804Z,2.63
2023-03-27T07:00:51.104Z,2.45
2023-03-27T07:03:19.203Z,2.58
2023-03-27T07:06:06.499Z,2.35
2023-03-27T07:08:59.146Z,2.75
2023-03-27T07:11:25.746Z,2.75
2023-03-27T07:13:59.081Z,2.30
2023-03-27T07:16:27.499Z,3.78
2023-03-27T07:18:54.535Z,3.15
2023-03-27T07:21:22.363Z,2.95
2023-03-27T07:23:49.577Z,2.28
2023-03-27T07:26:26.985Z,2.80
2023-03-27T07:29:00.697Z,1.85
2023-03-27T07:31:41.985Z,2.55
2023-03-27T07:34:15.660Z,2.28
2023-03-27T07:37:02.319Z,3.08
2023-03-27T07:39:30.070Z,2.25
2023-03-27T07:41:57.095Z,2.60
2023-03-27T07:44:29.331Z,2.72
2023-03-27T07:47:01.412Z,2.33
2023-03-27T07:49:38.954Z,1.85
2023-03-27T07:52:14.696Z,2.38
2023-03-27T07:54:49.624Z,1.77
2023-03-27T07:57:19.924Z,1.90
2023-03-27T07:59:52.749Z,1.75
2023-03-27T08:02:43.463Z,2.22
2023-03-27T08:05:11.262Z,1.77
2023-03-27T08:07:40.749Z,2.58
2023-03-27T08:10:08.314Z,1.80
2023-03-27T08:12:46.380Z,2.40
2023-03-27T08:15:14.416Z,2.40
2023-03-27T08:17:41.098Z,1.75
2023-03-27T08:20:14.710Z,1.77
2023-03-27T08:22:45.789Z,2.40
2023-03-27T08:25:35.621Z,2.20
2023-03-27T08:28:07.175Z,2.65
2023-03-27T08:30:35.279Z,1.98
2023-03-27T08:33:02.529Z,2.70
2023-03-27T08:35:29.712Z,2.38
2023-03-27T08:37:56.446Z,3.17
2023-03-27T08:40:39.056Z,4.22
2023-03-27T08:43:27.389Z,1.75
2023-03-27T08:46:09.163Z,2.90
2023-03-27T08:48:44.147Z,2.30
2023-03-27T08:51:22.391Z,1.65
2023-03-27T08:53:57.246Z,1.92
2023-03-27T08:56:27.719Z,1.50
2023-03-27T08:58:55.409Z,2.25
2023-03-27T09:01:46.794Z,2.72
2023-03-27T09:04:27.492Z,2.15
2023-03-27T09:07:09.172Z,3.70
2023-03-27T09:10:22.316Z,3.05
2023-03-27T09:12:56.738Z,2.05
2023-03-27T09:15:31.785Z,2.00
2023-03-27T09:18:04.666Z,1.60
2023-03-27T09:20:40.836Z,1.57
2023-03-27T09:23:21.038Z,1.73
2023-03-27T09:26:16.703Z,2.83
2023-03-27T09:29:22.281Z,3.97
2023-03-27T09:31:58.473Z,2.30
2023-03-27T09:34:33.407Z,2.15
2023-03-27T09:37:01.475Z,2.80
2023-03-27T09:39:33.885Z,2.67
2023-03-27T09:42:22.328Z,2.30
2023-03-27T09:44:56.055Z,2.47
2023-03-27T09:47:52.094Z,2.22
2023-03-27T09:53:23.415Z,1.60
2023-03-27T09:56:12.742Z,2.07
2023-03-27T09:58:48.855Z,1.85
2023-03-27T10:01:19.889Z,1.67
2023-03-27T10:03:54.022Z,2.10
2023-03-27T10:06:43.226Z,1.67
2023-03-27T10:09:40.949Z,2.70
2023-03-27T10:12:19.546Z,2.55
2023-03-27T10:14:52.677Z,2.00
2023-03-27T10:17:39.724Z,2.75
2023-03-27T10:20:15.654Z,2.08
2023-03-27T10:22:54.469Z,2.13
2023-03-27T10:25:38.996Z,1.65
2023-03-27T10:28:36.528Z,2.20
2023-03-27T10:31:26.394Z,1.80
2023-03-27T10:34:01.683Z,1.63
2023-03-27T10:36:49.432Z,1.80
2023-03-27T10:39:20.788Z,1.73
2023-03-27T10:42:09.251Z,2.03
2023-03-27T10:44:40.232Z,2.00
2023-03-27T10:47:18.412Z,2.03
2023-03-27T10:49:52.051Z,2.00
2023-03-27T10:52:45.703Z,1.48
2023-03-27T10:55:53.813Z,1.30
2023-03-27T10:58:26.464Z,1.52
2023-03-27T11:01:03.961Z,1.45
2023-03-27T11:03:43.704Z,1.42
2023-03-27T11:06:16.763Z,1.88
2023-03-27T11:09:24.426Z,1.30
2023-03-27T11:12:01.961Z,1.85
2023-03-27T11:14:47.452Z,1.80
2023-03-27T11:17:24.087Z,1.70
2023-03-27T11:20:44.313Z,1.77
2023-03-27T11:23:36.838Z,1.40
2023-03-27T11:26:27.382Z,1.50
2023-03-27T11:29:17.804Z,1.80
2023-03-27T11:31:51.896Z,1.55
2023-03-27T11:34:48.323Z,1.48
2023-03-27T11:37:47.266Z,1.30
2023-03-27T11:40:22.751Z,1.52
2023-03-27T11:42:56.974Z,1.20
2023-03-27T11:45:27.206Z,3.80
2023-03-27T11:48:10.880Z,1.63
2023-03-27T11:51:10.048Z,1.75
2023-03-27T11:53:56.271Z,0.98
2023-03-27T11:56:38.649Z,1.40
2023-03-27T11:59:24.328Z,1.27
2023-03-27T12:02:37.909Z,1.40
2023-03-27T12:05:22.640Z,1.23
2023-03-27T12:08:08.821Z,0.90
2023-03-27T12:10:42.486Z,0.73
2023-03-27T12:13:42.100Z,0.80
2023-03-27T12:16:29.258Z,0.90
2023-03-27T12:19:29.822Z,0.85
2023-03-27T12:22:38.739Z,0.88
2023-03-27T12:25:19.992Z,1.00
2023-03-27T12:28:42.640Z,0.75
2023-03-27T12:31:49.092Z,1.00
2023-03-27T12:34:30.925Z,0.85
2023-03-27T12:36:59.917Z,0.60
2023-03-27T12:39:27.752Z,0.60
2023-03-27T12:41:59.761Z,0.77
2023-03-27T12:45:03.046Z,0.70
2023-03-27T12:47:30.222Z,0.80
2023-03-27T12:50:19.278Z,1.48
2023-03-27T12:52:46.819Z,1.38
2023-03-27T12:55:17.537Z,1.67
2023-03-27T12:58:05.485Z,1.70
2023-03-27T13:01:00.310Z,1.00
2023-03-27T13:04:28.265Z,1.40
2023-03-27T13:07:19.301Z,0.70
2023-03-27T13:10:38.326Z,0.63
2023-03-27T13:13:21.976Z,0.82
2023-03-27T13:16:11.925Z,1.27
2023-03-27T13:19:01.541Z,1.50
2023-03-27T13:21:45.808Z,1.45
2023-03-27T13:24:46.890Z,0.60
2023-03-27T13:27:28.942Z,0.77
2023-03-27T13:29:56.853Z,1.50
2023-03-27T13:32:41.166Z,0.70
2023-03-27T13:35:25.762Z,0.90
2023-03-27T13:37:58.004Z,0.80
2023-03-27T13:40:36.453Z,1.00
2023-03-27T13:43:30.828Z,1.00
2023-03-27T13:46:06.046Z,1.00
2023-03-27T13:49:14.320Z,0.70
2023-03-27T13:52:08.786Z,1.30
2023-03-27T13:54:54.468Z,0.90
2023-03-27T13:57:45.913Z,1.17
2023-03-27T14:00:24.118Z,1.13
2023-03-27T14:03:57.636Z,1.92
2023-03-27T14:06:59.780Z,2.30
2023-03-27T14:09:41.189Z,2.08
2023-03-27T14:12:29.815Z,1.10
2023-03-27T14:15:27.993Z,6.70
2023-03-27T14:18:53.110Z,1.50
2023-03-27T14:21:37.929Z,1.73
2023-03-27T14:24:24.062Z,1.00
2023-03-27T14:26:57.593Z,0.93
2023-03-27T14:29:24.183Z,1.20
2023-03-27T14:31:51.421Z,1.00
2023-03-27T14:34:31.554Z,0.82
2023-03-27T14:37:28.792Z,1.40
2023-03-27T14:39:59.352Z,1.98
2023-03-27T14:42:36.563Z,1.60
2023-03-27T14:45:23.578Z,2.60
2023-03-27T14:48:06.203Z,1.00
2023-03-27T14:50:43.908Z,4.35
2023-03-27T14:53:19.422Z,1.13
2023-03-27T14:56:05.750Z,1.02
2023-03-27T14:59:03.538Z,1.50
2023-03-27T15:01:50.578Z,1.13
2023-03-27T15:04:18.248Z,1.10
2023-03-27T15:06:49.747Z,1.00
2023-03-27T15:09:37.227Z,1.35
2023-03-27T15:12:37.488Z,0.85
2023-03-27T15:15:22.355Z,0.70
2023-03-27T15:17:50.681Z,2.33
2023-03-27T15:20:20.036Z,1.75
2023-03-27T15:22:52.003Z,1.27
2023-03-27T15:25:45.917Z,1.30
2023-03-27T15:28:25.760Z,1.38
2023-03-27T15:30:55.967Z,1.80
2023-03-27T15:33:34.058Z,0.90
2023-03-27T15:36:06.006Z,1.13
2023-03-27T15:38:35.597Z,1.15
2023-03-27T15:41:27.742Z,1.55
2023-03-27T15:44:12.761Z,1.88
2023-03-27T15:46:54.703Z,3.83
2023-03-27T15:49:25.422Z,1.30
2023-03-27T15:51:52.003Z,1.10
2023-03-27T15:54:33.158Z,1.60
2023-03-27T15:57:14.710Z,3.50
2023-03-27T15:59:52.889Z,1.45
2023-03-27T16:02:21.719Z,1.20
2023-03-27T16:04:58.793Z,1.45
2023-03-27T16:07:30.115Z,2.10
2023-03-27T16:10:02.505Z,1.40
2023-03-27T16:12:47.470Z,1.50
2023-03-27T16:15:37.392Z,1.35
2023-03-27T16:18:18.643Z,1.80
2023-03-27T16:20:45.252Z,1.42
2023-03-27T16:23:11.728Z,3.35
2023-03-27T16:25:38.885Z,1.73
2023-03-27T16:28:08.327Z,2.22
2023-03-27T16:30:39.576Z,2.15
2023-03-27T16:33:15.329Z,1.30
2023-03-27T16:35:42.582Z,1.00
2023-03-27T16:38:09.094Z,4.30
2023-03-27T16:40:35.936Z,3.35
2023-03-27T16:43:02.470Z,1.23
2023-03-27T16:45:29.030Z,1.98
2023-03-27T16:47:55.864Z,1.63
2023-03-27T16:50:25.430Z,1.38
2023-03-27T16:52:52.808Z,1.85
2023-03-27T16:55:19.479Z,1.80
2023-03-27T16:57:48.700Z,1.40
2023-03-27T17:00:16.567Z,1.63
2023-03-27T17:02:44.364Z,1.60
2023-03-27T17:05:11.488Z,2.00
2023-03-27T17:07:38.568Z,3.05
2023-03-27T17:10:05.901Z,1.38
2023-03-27T17:12:32.538Z,1.40
2023-03-27T17:14:59.166Z,1.90
2023-03-27T17:17:27.449Z,1.80
2023-03-27T17:19:54.193Z,2.20
2023-03-27T17:22:21.428Z,1.88
2023-03-27T17:24:55.949Z,0.98
2023-03-27T17:27:25.717Z,1.48
2023-03-27T17:29:53.332Z,1.10
2023-03-27T17:32:19.786Z,1.10
2023-03-27T17:34:46.277Z,0.73
2023-03-27T17:37:12.767Z,1.00
2023-03-27T17:39:39.560Z,0.70
2023-03-27T17:42:06.592Z,1.27
2023-03-27T17:44:33.108Z,1.30
2023-03-27T17:47:00.463Z,1.70
2023-03-27T17:49:29.535Z,1.05
2023-03-27T17:51:56.164Z,1.23
2023-03-27T17:54:22.710Z,0.82
2023-03-27T17:56:51.032Z,0.90
2023-03-27T17:59:17.609Z,1.80
2023-03-27T18:01:45.442Z,1.15
2023-03-27T18:04:12.145Z,0.90
2023-03-27T18:06:39.174Z,1.10
2023-03-27T18:09:07.385Z,1.15
2023-03-27T18:11:34.063Z,1.50
2023-03-27T18:14:00.911Z,2.97
2023-03-27T18:16:27.484Z,2.10
2023-03-27T18:18:55.533Z,1.95
2023-03-27T18:21:22.238Z,1.90
2023-03-27T18:23:53.442Z,1.85
2023-03-27T18:26:20.865Z,1.55
2023-03-27T18:28:47.562Z,1.20
2023-03-27T18:31:16.012Z,1.50
2023-03-27T18:33:42.624Z,1.10
2023-03-27T18:36:10.632Z,1.40
2023-03-27T18:38:39.898Z,1.17
2023-03-27T18:41:06.852Z,1.13
2023-03-27T18:43:33.686Z,1.15
2023-03-27T18:46:03.217Z,1.70
2023-03-27T18:48:31.031Z,1.50
2023-03-27T18:50:59.716Z,1.30
2023-03-27T18:53:26.269Z,1.70
2023-03-27T18:55:53.733Z,2.25
2023-03-27T18:58:24.217Z,3.65
2023-03-27T19:00:51.592Z,2.25
2023-03-27T19:03:20.928Z,2.42
2023-03-27T19:05:47.920Z,1.85
2023-03-27T19:08:15.394Z,1.70
2023-03-27T19:10:42.406Z,1.77
2023-03-27T19:13:21.737Z,1.73
2023-03-27T19:16:14.261Z,1.30
2023-03-27T19:19:04.632Z,1.73
2023-03-27T19:21:54.645Z,2.20
2023-03-27T19:24:37.082Z,1.83
2023-03-27T19:27:04.201Z,1.80
2023-03-27T19:29:31.366Z,1.92
2023-03-27T19:31:58.306Z,3.67
2023-03-27T19:34:40.014Z,2.08
2023-03-27T19:37:09.312Z,2.00
2023-03-27T19:39:35.818Z,1.55
2023-03-27T19:42:02.335Z,1.58
2023-03-27T19:44:28.905Z,1.70
2023-03-27T19:46:55.499Z,1.50
2023-03-27T19:49:22.018Z,1.60
2023-03-27T19:52:04.319Z,1.50
2023-03-27T19:54:31.341Z,2.70
2023-03-27T19:56:58.182Z,1.65
2023-03-27T19:59:30.811Z,1.50
2023-03-27T20:01:57.958Z,1.80
2023-03-27T20:04:24.580Z,1.80
2023-03-27T20:06:51.338Z,2.42
2023-03-27T20:09:18.845Z,2.53
2023-03-27T20:11:46.332Z,3.30
2023-03-27T20:14:13.351Z,3.17
2023-03-27T20:16:39.830Z,2.67
2023-03-27T20:19:07.041Z,2.78
2023-03-27T20:21:39.423Z,1.92
2023-03-27T20:24:12.270Z,2.28
2023-03-27T20:26:42.540Z,2.92
2023-03-27T20:29:18.682Z,2.25
2023-03-27T20:31:46.118Z,2.42
2023-03-27T20:34:12.872Z,2.00
2023-03-27T20:36:39.577Z,3.03
2023-03-27T20:39:21.913Z,2.65
2023-03-27T20:41:49.019Z,1.85
2023-03-27T20:44:15.969Z,1.63
2023-03-27T20:46:47.394Z,2.10
2023-03-27T20:49:37.573Z,1.40
2023-03-27T20:52:07.419Z,1.90
2023-03-27T20:54:33.977Z,1.63
2023-03-27T20:57:01.464Z,2.08
2023-03-27T20:59:28.686Z,2.80
2023-03-27T21:01:55.229Z,2.47
2023-03-27T21:04:21.790Z,2.53
2023-03-27T21:06:48.246Z,1.83
2023-03-27T21:09:15.202Z,3.42
2023-03-27T21:11:42.241Z,2.78
2023-03-27T21:14:08.897Z,2.90
2023-03-27T21:16:35.503Z,3.33
2023-03-27T21:19:02.054Z,2.83
2023-03-27T21:21:34.208Z,2.05
2023-03-27T21:24:01.160Z,2.03
2023-03-27T21:26:27.734Z,2.00
2023-03-27T21:28:57.773Z,1.83
2023-03-27T21:31:24.611Z,2.83
2023-03-27T21:33:51.487Z,2.58
2023-03-27T21:36:18.356Z,2.80
2023-03-27T21:38:44.904Z,3.33
2023-03-27T21:41:14.101Z,3.40
2023-03-27T21:43:41.082Z,3.65
2023-03-27T21:46:07.775Z,3.53
2023-03-27T21:48:34.260Z,3.22
2023-03-27T21:51:02.862Z,3.22
2023-03-27T21:53:29.656Z,2.60
2023-03-27T21:55:57.469Z,3.15
2023-03-27T21:58:25.718Z,3.20
2023-03-27T22:00:54.666Z,3.50
2023-03-27T22:03:21.156Z,2.90
2023-03-27T22:05:57.467Z,2.80
2023-03-27T22:08:36.892Z,2.70
2023-03-27T22:11:04.154Z,2.80
2023-03-27T22:13:31.412Z,2.20
2023-03-27T22:15:58.256Z,2.20
2023-03-27T22:18:25.084Z,2.42
2023-03-27T22:20:51.722Z,2.45
2023-03-27T22:23:18.320Z,2.72
2023-03-27T22:25:54.268Z,2.83
2023-03-27T22:28:20.984Z,2.17
2023-03-27T22:30:47.543Z,2.60
2023-03-27T22:33:14.098Z,2.65
2023-03-27T22:35:47.588Z,2.90
2023-03-27T22:38:17.076Z,2.97
2023-03-27T22:40:44.087Z,3.47
2023-03-27T22:43:10.866Z,2.75
2023-03-27T22:45:49.483Z,2.67
2023-03-27T22:48:15.980Z,3.03
2023-03-27T22:50:42.758Z,2.22
2023-03-27T22:53:09.256Z,2.28
2023-03-27T22:55:35.985Z,2.80
2023-03-27T22:58:02.467Z,2.97
2023-03-27T23:00:28.951Z,3.08
2023-03-27T23:02:55.645Z,3.13
2023-03-27T23:05:22.158Z,2.88
2023-03-27T23:07:48.660Z,2.97
2023-03-27T23:10:15.220Z,3.10
2023-03-27T23:12:41.871Z,3.13
2023-03-27T23:15:09.048Z,3.22
2023-03-27T23:17:35.539Z,3.28
2023-03-27T23:20:02.124Z,3.00
2023-03-27T23:22:28.587Z,2.80
2023-03-27T23:24:55.428Z,3.40
2023-03-27T23:27:21.915Z,2.50
2023-03-27T23:29:48.554Z,2.67
2023-03-27T23:32:15.411Z,2.85
2023-03-27T23:34:42.019Z,2.70
2023-03-27T23:37:08.510Z,2.88
2023-03-27T23:39:35.130Z,2.38
2023-03-27T23:42:01.716Z,2.65
2023-03-27T23:44:28.206Z,2.63
2023-03-27T23:46:54.677Z,3.42
2023-03-27T23:49:21.183Z,2.40
2023-03-27T23:51:47.661Z,2.75
2023-03-27T23:54:14.109Z,3.28
2023-03-27T23:56:40.614Z,2.85
2023-03-27T23:59:07.133Z,2.63
